Time;durP1;ratioP1;P1;durP2;ratioP2;P2;SDS_P1;SDS_P2;PMS_P1;PMS_P2;Temp;Humidity;BMP_temperature;BMP_pressure;BME280_temperature;BME280_humidity;BME280_pressure;Samples;Min_cycle;Max_cycle;Signal;HPM_P1;HPM_P2
2022/04/19 00:01:23;;;;;;;7.20;3.40;;;;;;;5.53;64.33;99663.03;4178719;28;20236;-71
2022/04/19 00:03:50;;;;;;;10.23;3.40;;;;;;;5.50;64.73;99657.97;4180366;28;22825;-70
2022/04/19 00:06:16;;;;;;;8.53;3.40;;;;;;;5.46;65.59;99662.69;4186578;28;22153;-69
2022/04/19 00:08:43;;;;;;;8.03;3.47;;;;;;;5.49;66.43;99661.59;4189083;28;20278;-70
2022/04/19 00:11:09;;;;;;;5.97;3.00;;;;;;;5.31;65.83;99653.44;4188374;28;20288;-72
2022/04/19 00:13:36;;;;;;;11.40;3.50;;;;;;;5.30;65.81;99654.41;4188119;28;20241;-70
2022/04/19 00:16:03;;;;;;;6.27;3.03;;;;;;;5.11;67.83;99656.97;4184668;28;20229;-71
2022/04/19 00:18:30;;;;;;;11.90;3.43;;;;;;;5.07;68.86;99651.91;4190397;28;20683;-70
2022/04/19 00:20:57;;;;;;;9.27;3.07;;;;;;;5.14;69.21;99651.41;4196799;28;20236;-69
2022/04/19 00:23:23;;;;;;;11.03;3.13;;;;;;;5.27;70.03;99644.97;4188052;28;20282;-71
2022/04/19 00:25:52;;;;;;;9.47;3.03;;;;;;;5.16;69.59;99641.56;4180610;28;20462;-71
2022/04/19 00:28:19;;;;;;;7.23;3.20;;;;;;;5.02;71.41;99648.00;4183312;28;20234;-67
2022/04/19 00:30:47;;;;;;;7.57;3.10;;;;;;;5.01;71.37;99647.19;4192467;28;20367;-69
2022/04/19 00:33:14;;;;;;;8.30;3.30;;;;;;;4.86;70.78;99637.91;4183601;28;20309;-70
2022/04/19 00:35:41;;;;;;;7.70;3.10;;;;;;;4.84;71.74;99640.66;4172809;28;20229;-70
2022/04/19 00:38:08;;;;;;;8.00;3.30;;;;;;;4.69;73.39;99639.31;4174206;28;20245;-70
2022/04/19 00:40:34;;;;;;;7.40;3.20;;;;;;;4.54;74.19;99637.94;4177063;28;23951;-71
2022/04/19 00:43:02;;;;;;;5.97;2.87;;;;;;;4.34;76.32;99636.94;4193464;28;20262;-69
2022/04/19 00:45:31;;;;;;;8.67;3.00;;;;;;;4.25;76.91;99642.94;4192416;28;20690;-71
2022/04/19 00:47:58;;;;;;;9.53;3.03;;;;;;;4.09;79.24;99644.16;4184629;28;21288;-70
2022/04/19 00:50:24;;;;;;;9.20;3.57;;;;;;;3.84;80.63;99640.06;4184522;28;21836;-70
2022/04/19 00:52:51;;;;;;;7.13;3.73;;;;;;;3.64;81.75;99640.78;4185903;28;22426;-70
2022/04/19 00:55:18;;;;;;;6.03;3.50;;;;;;;3.44;83.89;99643.19;4195277;28;20280;-71
2022/04/19 00:57:48;;;;;;;9.23;3.70;;;;;;;3.28;85.68;99638.25;4192538;28;22076;-69
2022/04/19 01:00:15;;;;;;;5.63;3.23;;;;;;;3.15;86.53;99637.50;4193628;28;22033;-69
2022/04/19 01:02:42;;;;;;;6.80;3.50;;;;;;;3.04;88.07;99640.94;4186483;28;20255;-70
2022/04/19 01:05:09;;;;;;;10.70;3.60;;;;;;;2.90;89.51;99638.53;4201290;28;20299;-70
2022/04/19 01:07:37;;;;;;;6.83;3.53;;;;;;;2.89;91.35;99635.06;4186428;28;20283;-71
2022/04/19 01:10:04;;;;;;;9.67;3.97;;;;;;;3.02;92.75;99636.75;4184955;28;20233;-68
2022/04/19 01:15:17;;;;;;;9.17;2.80;;;;;;;2.93;94.08;99631.28;4203186;28;20755;-69
2022/04/19 01:17:45;;;;;;;6.47;3.10;;;;;;;2.96;94.26;99630.19;4186475;28;20249;-68
2022/04/19 01:20:15;;;;;;;8.47;3.90;;;;;;;3.01;94.79;99627.22;4187951;28;22550;-70
2022/04/19 01:22:42;;;;;;;7.70;3.80;;;;;;;3.17;95.44;99617.22;4186205;28;20242;-69
2022/04/19 01:25:10;;;;;;;11.40;3.90;;;;;;;3.18;95.68;99626.75;4184816;28;20361;-69
2022/04/19 01:27:37;;;;;;;6.37;3.60;;;;;;;3.21;95.06;99625.69;4177810;28;20397;-68
2022/04/19 01:30:05;;;;;;;13.90;3.97;;;;;;;3.24;95.63;99621.03;4194959;28;20560;-69
2022/04/19 01:32:32;;;;;;;11.77;4.20;;;;;;;3.26;95.69;99620.94;4186915;28;23564;-68
2022/04/19 01:35:09;;;;;;;10.50;4.20;;;;;;;3.27;95.47;99614.69;4191882;28;20603;-68
2022/04/19 01:37:37;;;;;;;10.23;4.47;;;;;;;3.23;95.75;99610.63;4193029;28;20246;-68
2022/04/19 01:40:16;;;;;;;8.20;3.83;;;;;;;3.21;95.59;99615.16;4183755;28;20800;-68
2022/04/19 01:42:52;;;;;;;10.63;4.03;;;;;;;3.22;95.72;99612.44;4181946;28;20401;-68
2022/04/19 01:45:20;;;;;;;9.53;3.70;;;;;;;3.17;95.29;99607.53;4187974;28;20239;-68
2022/04/19 01:47:47;;;;;;;8.50;3.67;;;;;;;3.05;95.43;99605.00;4179051;28;20245;-70
2022/04/19 01:50:16;;;;;;;12.17;4.37;;;;;;;3.07;95.28;99608.38;4186071;28;20362;-68
2022/04/19 01:52:44;;;;;;;8.57;4.13;;;;;;;2.88;94.51;99603.66;4182618;28;20344;-68
2022/04/19 01:55:15;;;;;;;11.00;4.80;;;;;;;2.78;95.25;99602.69;4180289;28;20245;-69
2022/04/19 01:57:43;;;;;;;8.90;4.47;;;;;;;2.70;95.73;99605.91;4188993;28;25830;-67
2022/04/19 02:00:11;;;;;;;10.13;3.90;;;;;;;2.73;96.25;99610.91;4193421;28;20847;-68
2022/04/19 02:02:43;;;;;;;8.60;4.67;;;;;;;2.76;95.95;99608.03;4192820;28;21649;-70
2022/04/19 02:05:10;;;;;;;14.93;4.20;;;;;;;2.77;96.01;99612.34;4179956;28;20423;-68
2022/04/19 02:07:41;;;;;;;7.40;3.97;;;;;;;2.81;95.59;99607.69;4178695;28;20242;-68
2022/04/19 02:10:09;;;;;;;10.33;4.37;;;;;;;2.73;95.89;99611.72;4189973;28;21500;-72
2022/04/19 02:12:36;;;;;;;9.77;4.27;;;;;;;2.68;95.84;99610.41;4191196;28;20242;-74
2022/04/19 02:15:03;;;;;;;7.73;4.07;;;;;;;2.72;96.54;99609.25;4201880;28;21808;-74
2022/04/19 02:17:30;;;;;;;8.70;4.70;;;;;;;2.73;96.76;99611.72;4181343;28;20233;-74
2022/04/19 02:19:59;;;;;;;7.43;4.23;;;;;;;2.71;96.38;99607.56;4188982;28;20232;-73
2022/04/19 02:22:27;;;;;;;7.23;4.37;;;;;;;2.69;96.29;99610.31;4194491;28;20251;-74
2022/04/19 02:24:56;;;;;;;9.37;4.13;;;;;;;2.65;96.52;99600.16;4203630;28;21245;-71
2022/04/19 02:27:24;;;;;;;10.57;4.33;;;;;;;2.71;97.16;99607.56;4180197;28;21436;-73
2022/04/19 02:29:51;;;;;;;10.83;4.70;;;;;;;2.73;96.94;99598.59;4169498;28;20698;-72
2022/04/19 02:32:18;;;;;;;9.23;4.33;;;;;;;2.76;97.01;99610.66;4194212;28;25648;-74
2022/04/19 02:34:44;;;;;;;11.20;4.40;;;;;;;2.78;96.66;99607.94;4181036;28;20235;-73
2022/04/19 02:37:11;;;;;;;8.13;4.03;;;;;;;2.88;96.61;99607.13;4193842;28;22953;-72
2022/04/19 02:39:38;;;;;;;7.03;4.30;;;;;;;2.90;96.51;99599.13;4200580;28;21462;-72
2022/04/19 02:42:06;;;;;;;9.73;4.37;;;;;;;2.95;96.81;99608.34;4184999;28;20651;-72
2022/04/19 02:44:33;;;;;;;10.70;4.40;;;;;;;2.89;96.90;99605.34;4196445;28;26496;-72
2022/04/19 02:47:02;;;;;;;9.37;4.93;;;;;;;2.96;97.17;99602.13;4191266;28;20248;-72
2022/04/19 02:49:29;;;;;;;8.37;4.13;;;;;;;3.10;96.64;99603.69;4182104;28;20272;-73
2022/04/19 02:51:56;;;;;;;9.57;4.40;;;;;;;3.07;95.97;99603.09;4183632;28;21133;-73
2022/04/19 02:54:23;;;;;;;9.73;4.53;;;;;;;3.05;95.38;99597.13;4191880;28;20468;-73
2022/04/19 02:56:49;;;;;;;11.20;4.30;;;;;;;3.08;95.26;99600.34;4192453;28;20311;-72
2022/04/19 02:59:16;;;;;;;7.37;3.60;;;;;;;3.05;95.23;99603.22;4182734;28;20243;-71
2022/04/19 03:01:43;;;;;;;5.40;3.70;;;;;;;2.96;94.43;99603.91;4193314;28;20252;-73
2022/04/19 03:04:10;;;;;;;10.00;3.70;;;;;;;2.93;93.88;99599.72;4176643;28;21577;-73
2022/04/19 03:06:36;;;;;;;10.90;3.83;;;;;;;2.89;94.12;99598.28;4188516;28;22278;-73
2022/04/19 03:09:03;;;;;;;7.77;3.47;;;;;;;2.89;94.11;99598.28;4189768;28;24470;-73
2022/04/19 03:11:32;;;;;;;8.90;3.53;;;;;;;2.80;94.58;99606.88;4187281;28;21532;-73
2022/04/19 03:13:59;;;;;;;5.83;3.40;;;;;;;2.81;95.33;99603.31;4176201;28;20244;-73
2022/04/19 03:16:26;;;;;;;6.07;3.30;;;;;;;2.81;94.52;99607.69;4191621;28;20286;-77
2022/04/19 03:18:53;;;;;;;8.83;3.30;;;;;;;2.80;94.57;99606.88;4185975;28;20678;-72
2022/04/19 03:21:19;;;;;;;6.80;3.67;;;;;;;2.74;94.53;99608.19;4189987;28;23579;-72
2022/04/19 03:29:17;;;;;;;5.30;3.10;;;;;;;2.69;94.62;99610.31;4194499;28;20348;-73
2022/04/19 03:31:43;;;;;;;6.43;3.93;;;;;;;2.71;95.07;99612.81;4187864;28;20241;-72
2022/04/19 03:34:11;;;;;;;9.27;4.60;;;;;;;2.74;94.97;99612.59;4188137;28;20455;-73
2022/04/19 03:36:44;;;;;;;5.57;3.53;;;;;;;2.80;94.75;99612.13;4191882;28;21410;-72
2022/04/19 03:39:11;;;;;;;6.10;3.83;;;;;;;2.89;94.43;99615.84;4174322;28;20337;-71
2022/04/19 03:41:37;;;;;;;6.17;3.57;;;;;;;2.81;94.82;99611.19;4179827;28;23593;-73
2022/04/19 03:44:25;;;;;;;6.47;3.03;;;;;;;2.80;94.21;99620.00;4195526;28;20231;-72
2022/04/19 03:47:07;;;;;;;5.53;3.10;;;;;;;2.76;94.72;99618.53;4191655;28;20229;-74
2022/04/19 03:49:34;;;;;;;5.57;3.13;;;;;;;2.73;94.42;99618.78;4189796;28;22848;-72
2022/04/19 03:52:02;;;;;;;4.40;2.80;;;;;;;2.71;93.53;99624.16;4174906;28;23132;-74
2022/04/19 03:54:28;;;;;;;4.30;2.93;;;;;;;2.70;93.38;99621.66;4183914;28;21663;-72
2022/04/19 03:56:56;;;;;;;4.67;2.97;;;;;;;2.69;93.78;99626.06;4191857;28;20242;-71
2022/04/19 03:59:22;;;;;;;4.90;3.00;;;;;;;2.63;94.17;99625.69;4206054;28;20295;-73
2022/04/19 04:01:49;;;;;;;6.20;2.60;;;;;;;2.63;93.88;99621.28;4181846;28;20335;-73
2022/04/19 04:04:16;;;;;;;5.43;3.30;;;;;;;2.63;94.25;99621.28;4191760;28;20232;-71
2022/04/19 04:06:42;;;;;;;5.73;3.70;;;;;;;2.67;93.79;99627.13;4194492;28;20298;-74
2022/04/19 04:09:09;;;;;;;4.63;3.23;;;;;;;2.59;94.44;99624.25;4192870;28;20225;-72
2022/04/19 04:11:35;;;;;;;6.37;3.57;;;;;;;2.45;95.21;99628.72;4196551;28;20290;-74
2022/04/19 04:14:02;;;;;;;5.50;3.10;;;;;;;2.40;95.58;99625.59;4209183;28;20641;-71
2022/04/19 04:16:29;;;;;;;4.93;3.70;;;;;;;2.38;95.78;99624.03;4192100;28;23097;-72
2022/04/19 04:18:58;;;;;;;6.10;3.97;;;;;;;2.39;96.51;99634.44;4194031;28;20244;-71
2022/04/19 04:21:25;;;;;;;5.57;3.73;;;;;;;2.35;97.14;99638.22;4204458;28;20233;-72
2022/04/19 04:23:52;;;;;;;8.47;4.50;;;;;;;2.32;97.54;99638.47;4199261;28;22053;-71
2022/04/19 04:26:18;;;;;;;6.63;4.33;;;;;;;2.38;97.84;99638.00;4183976;28;20801;-72
2022/04/19 04:28:45;;;;;;;8.03;5.13;;;;;;;2.36;98.46;99639.06;4202533;28;20300;-72
2022/04/19 04:31:12;;;;;;;7.13;4.50;;;;;;;2.45;97.90;99647.09;4183930;28;21151;-71
2022/04/19 04:33:38;;;;;;;6.63;3.83;;;;;;;2.37;97.47;99654.72;4201280;28;23658;-71
2022/04/19 04:36:05;;;;;;;8.73;4.00;;;;;;;2.37;97.45;99651.25;4209759;28;22489;-73
2022/04/19 04:38:32;;;;;;;6.87;3.97;;;;;;;2.37;96.71;99659.97;4194617;28;20241;-72
2022/04/19 04:40:58;;;;;;;7.73;3.50;;;;;;;2.38;96.49;99658.16;4207418;28;20233;-71
2022/04/19 04:43:25;;;;;;;5.73;3.40;;;;;;;2.39;95.65;99665.06;4203115;28;20236;-74
2022/04/19 04:51:23;;;;;;;6.87;4.10;;;;;;;2.12;96.89;99668.75;4205821;28;22430;-72
2022/04/19 04:53:49;;;;;;;6.20;4.30;;;;;;;2.10;97.76;99666.22;4224827;28;20660;-72
2022/04/19 04:56:16;;;;;;;8.13;4.90;;;;;;;2.12;97.64;99674.00;4221918;28;20882;-72
2022/04/19 04:58:43;;;;;;;11.00;5.23;;;;;;;2.09;97.44;99671.63;4246410;28;20349;-72
2022/04/19 05:01:10;;;;;;;8.73;5.90;;;;;;;2.04;97.85;99668.50;4234906;28;20231;-71
2022/04/19 05:03:37;;;;;;;10.50;7.00;;;;;;;2.09;97.97;99682.94;4229618;28;25884;-74
2022/04/19 05:06:03;;;;;;;9.97;6.90;;;;;;;2.14;96.88;99681.78;4238216;28;22139;-71
2022/04/19 05:08:31;;;;;;;12.83;6.70;;;;;;;2.10;97.82;99687.22;4212586;28;23312;-73
2022/04/19 05:10:58;;;;;;;10.07;6.50;;;;;;;2.10;97.63;99686.41;4226734;28;21283;-72
2022/04/19 05:13:24;;;;;;;12.03;6.07;;;;;;;2.13;97.49;99685.34;4202716;28;20236;-71
2022/04/19 05:15:51;;;;;;;9.87;6.03;;;;;;;2.18;97.08;99683.22;4199577;28;20295;-74
2022/04/19 05:18:18;;;;;;;10.77;5.60;;;;;;;2.10;97.19;99681.97;4207866;28;21348;-71
2022/04/19 05:20:45;;;;;;;8.43;5.83;;;;;;;2.04;97.36;99685.06;4239202;28;20239;-71
2022/04/19 05:23:12;;;;;;;8.13;4.83;;;;;;;2.03;97.70;99685.16;4201415;28;20242;-73
2022/04/19 05:25:38;;;;;;;8.80;4.70;;;;;;;2.16;96.83;99691.22;4196074;28;20764;-71
2022/04/19 05:28:05;;;;;;;6.13;4.30;;;;;;;2.12;96.86;99695.00;4209472;28;20275;-71
2022/04/19 05:30:32;;;;;;;4.90;3.57;;;;;;;2.15;96.26;99699.19;4197664;28;20350;-72
2022/04/19 05:32:59;;;;;;;6.33;4.00;;;;;;;2.14;95.93;99697.53;4194486;28;20746;-71
2022/04/19 05:35:26;;;;;;;5.67;3.70;;;;;;;2.21;95.53;99704.84;4197690;28;20237;-72
2022/04/19 05:37:54;;;;;;;7.90;3.70;;;;;;;2.10;94.94;99702.97;4207616;28;20284;-72
2022/04/19 05:40:21;;;;;;;5.43;3.70;;;;;;;2.13;94.98;99711.59;4197358;28;22057;-74
2022/04/19 05:42:48;;;;;;;7.10;3.40;;;;;;;2.17;94.88;99708.63;4198944;28;20251;-68
2022/04/19 05:45:15;;;;;;;6.20;4.00;;;;;;;2.30;94.17;99719.13;4206342;28;20241;-68
2022/04/19 05:47:41;;;;;;;7.00;4.00;;;;;;;2.36;93.61;99717.81;4206322;28;21835;-70
2022/04/19 05:50:08;;;;;;;6.47;4.10;;;;;;;2.48;92.80;99724.81;4201031;28;20686;-70
2022/04/19 05:52:35;;;;;;;8.77;4.20;;;;;;;2.49;92.51;99723.88;4178945;28;20231;-69
2022/04/19 05:55:01;;;;;;;6.63;4.03;;;;;;;2.33;92.60;99724.13;4199228;28;21580;-69
2022/04/19 05:57:28;;;;;;;5.97;4.13;;;;;;;2.31;94.37;99726.03;4204753;28;21260;-68
2022/04/19 05:59:54;;;;;;;7.83;5.17;;;;;;;2.41;93.43;99732.31;4178718;28;20271;-67
2022/04/19 06:05:07;;;;;;;7.40;4.57;;;;;;;2.36;92.74;99726.53;4209937;28;20233;-68
2022/04/19 06:07:45;;;;;;;7.27;5.67;;;;;;;2.20;93.06;99747.81;4192167;28;20237;-68
2022/04/19 06:10:14;;;;;;;10.30;6.40;;;;;;;2.20;93.48;99749.56;4179500;28;20858;-68
2022/04/19 06:12:43;;;;;;;10.37;7.23;;;;;;;2.33;93.71;99750.38;4188879;28;21754;-68
2022/04/19 06:15:12;;;;;;;11.60;7.00;;;;;;;2.45;93.15;99754.75;4187800;28;21694;-69
2022/04/19 06:17:40;;;;;;;10.87;7.60;;;;;;;2.32;93.23;99753.97;4187200;28;20233;-68
2022/04/19 06:20:08;;;;;;;12.23;7.80;;;;;;;2.23;93.68;99755.47;4188594;28;20239;-68
2022/04/19 06:22:34;;;;;;;12.77;7.50;;;;;;;2.31;94.28;99752.28;4186650;28;20308;-68
2022/04/19 06:25:01;;;;;;;11.33;7.83;;;;;;;2.30;93.89;99755.88;4183305;28;23775;-69
2022/04/19 06:27:28;;;;;;;12.40;7.23;;;;;;;2.27;94.08;99758.69;4192132;28;20295;-68
2022/04/19 06:29:57;;;;;;;10.70;7.20;;;;;;;2.36;93.87;99760.66;4184552;28;20798;-69
2022/04/19 06:32:24;;;;;;;11.10;7.63;;;;;;;2.43;92.98;99761.91;4178830;28;20639;-71
2022/04/19 06:34:53;;;;;;;10.43;6.53;;;;;;;2.55;92.71;99765.44;4183738;28;20236;-69
2022/04/19 06:37:20;;;;;;;12.50;6.33;;;;;;;2.54;91.26;99761.97;4180014;28;20235;-68
2022/04/19 06:39:47;;;;;;;7.80;5.37;;;;;;;2.49;91.65;99766.72;4198477;28;20252;-65
2022/04/19 06:42:13;;;;;;;7.07;5.27;;;;;;;2.58;91.25;99772.28;4200363;28;20246;-72
2022/04/19 06:44:40;;;;;;;6.80;4.90;;;;;;;2.66;90.55;99783.06;4187643;28;20399;-68
2022/04/19 06:47:07;;;;;;;7.33;5.07;;;;;;;2.70;90.21;99779.28;4179225;28;20236;-72
2022/04/19 06:49:33;;;;;;;10.67;4.30;;;;;;;2.71;89.82;99784.38;4186499;28;22229;-69
2022/04/19 06:52:02;;;;;;;7.97;4.93;;;;;;;2.83;89.62;99789.72;4195331;28;20277;-69
2022/04/19 06:54:30;;;;;;;11.60;4.33;;;;;;;2.95;89.18;99794.94;4189175;28;22606;-68
2022/04/19 06:56:57;;;;;;;6.47;4.10;;;;;;;2.89;88.35;99798.00;4196261;28;20233;-69
2022/04/19 06:59:24;;;;;;;4.60;3.37;;;;;;;2.98;88.22;99803.53;4185023;28;25511;-67
2022/04/19 07:01:52;;;;;;;5.43;3.80;;;;;;;2.96;87.34;99801.84;4184808;28;20497;-70
2022/04/19 07:04:18;;;;;;;7.70;3.63;;;;;;;3.03;86.62;99811.91;4207794;28;22557;-69
2022/04/19 07:06:45;;;;;;;5.33;4.03;;;;;;;3.02;86.74;99810.22;4189623;28;20246;-69
2022/04/19 07:09:12;;;;;;;5.27;3.80;;;;;;;3.06;86.58;99816.94;4191072;28;20244;-68
2022/04/19 07:11:39;;;;;;;6.17;4.00;;;;;;;3.09;86.77;99809.69;4195302;28;20239;-69
2022/04/19 07:14:06;;;;;;;5.67;3.83;;;;;;;3.19;87.10;99822.16;4192849;28;20343;-69
2022/04/19 07:16:32;;;;;;;5.17;3.67;;;;;;;3.36;86.19;99824.38;4191672;28;20239;-68
2022/04/19 07:18:59;;;;;;;4.73;3.73;;;;;;;3.54;84.34;99824.78;4202819;28;20236;-68
2022/04/19 07:27:19;;;;;;;5.00;3.83;;;;;;;3.76;82.90;99831.91;4195447;28;21443;-69
2022/04/19 07:29:46;;;;;;;4.90;3.50;;;;;;;3.83;81.64;99835.75;4207050;28;20249;-69
2022/04/19 07:32:12;;;;;;;6.23;3.40;;;;;;;3.62;81.84;99829.47;4196427;28;21243;-70
2022/04/19 07:34:39;;;;;;;4.43;3.50;;;;;;;3.64;82.18;99838.91;4192929;28;20296;-69
2022/04/19 07:37:06;;;;;;;4.70;3.37;;;;;;;3.72;80.65;99838.34;4196729;28;20230;-69
2022/04/19 07:39:32;;;;;;;4.77;3.03;;;;;;;3.78;81.26;99841.34;4187873;28;21904;-70
2022/04/19 07:42:00;;;;;;;6.60;3.47;;;;;;;3.90;80.67;99842.22;4185611;28;20296;-69
2022/04/19 07:44:31;;;;;;;5.13;3.50;;;;;;;4.05;80.73;99850.75;4181038;28;22095;-69
2022/04/19 07:46:57;;;;;;;5.77;3.57;;;;;;;4.13;80.43;99845.72;4194427;28;21680;-70
2022/04/19 07:49:24;;;;;;;5.03;3.40;;;;;;;4.10;79.55;99847.75;4190025;28;21804;-63
2022/04/19 07:51:51;;;;;;;9.23;3.67;;;;;;;4.20;79.72;99846.91;4194328;28;20288;-72
2022/04/19 07:54:17;;;;;;;5.23;3.50;;;;;;;4.27;78.48;99855.19;4200532;28;20236;-71
2022/04/19 07:56:44;;;;;;;4.87;3.60;;;;;;;4.34;77.35;99853.75;4207094;28;21097;-75
2022/04/19 07:59:10;;;;;;;6.77;3.60;;;;;;;4.43;77.50;99857.47;4180256;28;21103;-73
2022/04/19 08:01:38;;;;;;;4.37;3.13;;;;;;;4.53;77.34;99868.94;4199749;28;20259;-72
2022/04/19 08:04:04;;;;;;;5.23;3.40;;;;;;;4.62;76.48;99856.84;4215190;28;25702;-71
2022/04/19 08:06:31;;;;;;;4.40;3.30;;;;;;;4.63;76.31;99866.44;4203610;28;20336;-72
2022/04/19 08:08:57;;;;;;;6.57;3.73;;;;;;;4.50;76.02;99860.47;4193482;28;20255;-72
2022/04/19 08:11:26;;;;;;;5.47;3.60;;;;;;;4.50;76.09;99868.38;4197924;28;20238;-74
2022/04/19 08:13:53;;;;;;;5.43;3.77;;;;;;;4.52;78.79;99871.69;4200120;28;24289;-67
2022/04/19 08:16:20;;;;;;;5.30;3.70;;;;;;;4.72;77.52;99878.06;4195380;28;20307;-71
2022/04/19 08:18:46;;;;;;;4.27;3.23;;;;;;;4.59;75.93;99872.91;4211300;28;20315;-72
2022/04/19 08:21:13;;;;;;;4.97;3.73;;;;;;;4.58;76.13;99893.13;4187314;28;21504;-68
2022/04/19 08:23:40;;;;;;;4.60;3.20;;;;;;;4.49;75.00;99888.59;4197164;28;20233;-68
2022/04/19 08:26:07;;;;;;;4.33;3.07;;;;;;;4.36;76.31;99887.88;4224332;28;20234;-69
2022/04/19 08:28:33;;;;;;;6.83;3.37;;;;;;;4.55;75.46;99893.38;4204179;28;20881;-70
2022/04/19 08:31:00;;;;;;;5.53;3.17;;;;;;;4.56;75.16;99891.59;4191509;28;20237;-67
2022/04/19 08:33:26;;;;;;;7.07;4.33;;;;;;;4.66;74.71;99892.56;4191788;28;22138;-66
2022/04/19 08:35:53;;;;;;;7.17;4.27;;;;;;;4.68;74.12;99895.06;4194894;28;20275;-68
2022/04/19 08:38:20;;;;;;;8.27;4.77;;;;;;;4.59;75.08;99894.84;4185191;28;20260;-68
2022/04/19 08:40:48;;;;;;;6.33;4.00;;;;;;;4.75;76.29;99893.59;4203069;28;21746;-70
2022/04/19 08:43:15;;;;;;;5.37;3.50;;;;;;;4.96;73.27;99894.53;4201595;28;20481;-67
2022/04/19 08:45:42;;;;;;;4.50;2.83;;;;;;;4.88;74.05;99901.41;4197543;28;20241;-69
2022/04/19 08:48:09;;;;;;;5.37;3.43;;;;;;;4.69;74.21;99896.75;4198417;28;22147;-69
2022/04/19 08:50:38;;;;;;;6.27;3.43;;;;;;;4.73;74.61;99898.16;4323372;28;20301;-69
2022/04/19 08:58:39;;;;;;;4.83;3.53;;;;;;;4.59;74.43;99897.47;4182821;28;20642;-70
2022/04/19 09:01:05;;;;;;;6.33;3.47;;;;;;;4.58;73.77;99901.03;4180265;28;26018;-72
2022/04/19 09:03:33;;;;;;;4.97;3.67;;;;;;;4.60;74.31;99898.31;4199141;28;20316;-67
2022/04/19 09:06:00;;;;;;;7.23;3.77;;;;;;;4.63;74.79;99904.16;4200235;28;20307;-70
2022/04/19 09:08:27;;;;;;;7.67;3.40;;;;;;;4.78;74.09;99903.94;4192191;28;23384;-70
2022/04/19 09:11:08;;;;;;;4.67;3.40;;;;;;;4.87;72.33;99905.84;4242640;28;20286;-72
2022/04/19 09:13:35;;;;;;;6.47;3.50;;;;;;;4.91;72.19;99907.25;4231180;28;21014;-69
2022/04/19 09:16:04;;;;;;;5.93;3.27;;;;;;;4.89;71.76;99910.97;4195764;28;20238;-70
2022/04/19 09:18:34;;;;;;;5.47;3.53;;;;;;;5.14;72.24;99908.06;4175336;28;20237;-58
2022/04/19 09:21:04;;;;;;;7.33;3.43;;;;;;;5.08;71.81;99912.03;4194257;28;20238;-67
2022/04/19 09:23:32;;;;;;;4.70;3.13;;;;;;;5.16;70.71;99914.06;4194514;28;22306;-67
2022/04/19 09:26:01;;;;;;;5.70;3.40;;;;;;;5.20;69.67;99922.56;4179815;28;22313;-70
2022/04/19 09:28:28;;;;;;;5.83;3.43;;;;;;;5.28;70.24;99918.34;4193853;28;22453;-68
2022/04/19 09:30:57;;;;;;;4.17;3.40;;;;;;;5.53;69.95;99911.09;4192588;28;23669;-69
2022/04/19 09:33:25;;;;;;;4.60;3.10;;;;;;;5.62;68.37;99912.97;4182393;28;20304;-67
2022/04/19 09:36:02;;;;;;;6.00;3.50;;;;;;;5.57;68.33;99912.50;4179322;28;20284;-68
2022/04/19 09:38:37;;;;;;;4.20;2.90;;;;;;;5.69;67.42;99916.78;4185773;28;20303;-69
2022/04/19 09:41:05;;;;;;;5.47;3.20;;;;;;;5.83;68.45;99918.28;4186123;28;20292;-69
2022/04/19 09:44:07;;;;;;;4.73;3.17;;;;;;;5.92;65.84;99922.78;4192807;28;21236;-65
2022/04/19 09:46:36;;;;;;;7.77;3.53;;;;;;;6.01;65.39;99921.19;4195465;28;22158;-67
2022/04/19 09:49:03;;;;;;;6.33;3.47;;;;;;;5.80;65.47;99929.06;4192083;28;20235;-67
2022/04/19 09:51:30;;;;;;;5.80;3.33;;;;;;;5.75;64.17;99931.25;4173048;28;20233;-68
2022/04/19 09:53:57;;;;;;;5.17;3.10;;;;;;;5.61;65.23;99944.75;4179632;28;21526;-68
2022/04/19 09:56:24;;;;;;;5.73;3.50;;;;;;;5.52;65.71;99934.94;4176174;28;20626;-69
2022/04/19 09:59:11;;;;;;;4.40;3.20;;;;;;;5.29;66.40;99937.63;4189523;28;22331;-67
2022/04/19 10:09:56;;;;;;;5.90;3.40;;;;;;;5.65;65.15;99947.03;4193998;28;20239;-67
2022/04/19 10:12:24;;;;;;;3.97;3.30;;;;;;;5.77;65.85;99944.34;4183350;28;21267;-67
2022/04/19 10:14:50;;;;;;;6.00;3.73;;;;;;;5.92;65.43;99946.56;4179792;28;20232;-65
2022/04/19 10:17:17;;;;;;;7.17;3.27;;;;;;;5.93;62.97;99950.88;4180113;28;20229;-66
2022/04/19 10:19:49;;;;;;;4.80;3.47;;;;;;;5.88;64.42;99950.41;4187209;28;21306;-65
2022/04/19 10:22:15;;;;;;;4.83;3.30;;;;;;;5.85;66.28;99942.75;4210241;28;21047;-67
2022/04/19 10:24:45;;;;;;;7.00;3.73;;;;;;;5.87;65.62;99948.72;4178108;28;20248;-67
2022/04/19 10:27:13;;;;;;;6.73;3.20;;;;;;;5.87;63.32;99947.88;4190796;28;25422;-67
2022/04/19 10:29:43;;;;;;;7.03;3.63;;;;;;;5.96;64.10;99948.97;4188772;28;20237;-57
2022/04/19 10:32:10;;;;;;;4.87;3.53;;;;;;;6.06;64.85;99956.00;4195693;28;20244;-66
2022/04/19 10:34:40;;;;;;;7.80;3.53;;;;;;;5.89;65.63;99953.88;4187183;28;20364;-67
2022/04/19 10:37:18;;;;;;;6.43;3.43;;;;;;;6.00;64.94;99956.50;4188101;28;20296;-66
2022/04/19 10:39:45;;;;;;;5.63;3.63;;;;;;;6.07;66.03;99951.56;4187753;28;20355;-67
2022/04/19 10:42:37;;;;;;;6.63;3.40;;;;;;;6.13;63.99;99958.97;4195465;28;20244;-68
2022/04/19 10:45:13;;;;;;;5.30;3.10;;;;;;;6.39;64.60;99955.94;4200464;28;20297;-68
2022/04/19 10:47:56;;;;;;;4.23;3.30;;;;;;;6.25;62.71;99960.59;4193892;28;21229;-68
2022/04/19 10:50:30;;;;;;;6.40;3.40;;;;;;;6.31;63.51;99953.94;4186126;28;23893;-68
2022/04/19 10:53:03;;;;;;;5.03;3.40;;;;;;;6.72;62.67;99955.72;4195754;28;20280;-67
2022/04/19 10:55:40;;;;;;;4.60;3.00;;;;;;;6.61;59.78;99949.66;4216100;28;20262;-66
2022/04/19 11:00:52;;;;;;;4.60;2.83;;;;;;;6.37;59.97;99953.44;4209512;28;20234;-67
2022/04/19 11:03:52;;;;;;;6.57;3.50;;;;;;;6.41;60.01;99954.00;4195375;28;22537;-69
2022/04/19 11:06:33;;;;;;;7.87;3.70;;;;;;;6.51;60.61;99949.63;4204294;28;22861;-66
2022/04/19 11:09:13;;;;;;;6.50;4.03;;;;;;;6.76;60.90;99956.25;4198260;28;20237;-68
2022/04/19 11:11:56;;;;;;;6.50;3.67;;;;;;;7.02;60.30;99948.72;4196443;28;20228;-67
2022/04/19 11:14:29;;;;;;;7.20;3.33;;;;;;;6.93;57.52;99965.38;4213175;28;20274;-68
2022/04/19 11:17:17;;;;;;;5.20;3.70;;;;;;;6.86;57.44;99958.94;4213261;28;20244;-68
2022/04/19 11:19:55;;;;;;;5.13;3.50;;;;;;;6.84;57.57;99960.91;4181160;28;20237;-68
2022/04/19 11:22:44;;;;;;;5.67;3.80;;;;;;;6.78;58.25;99956.16;4177004;28;20860;-68
2022/04/19 11:25:10;;;;;;;4.73;3.23;;;;;;;6.92;59.54;99953.13;4187495;28;20235;-69
2022/04/19 11:27:52;;;;;;;6.10;3.60;;;;;;;7.25;58.94;99961.75;4210153;28;20234;-68
2022/04/19 11:30:20;;;;;;;4.50;3.40;;;;;;;7.43;56.19;99952.16;4199988;28;20245;-67
2022/04/19 11:32:52;;;;;;;6.13;3.40;;;;;;;7.34;56.47;99958.28;4210127;28;20231;-69
2022/04/19 11:35:19;;;;;;;7.23;3.70;;;;;;;7.32;56.37;99950.47;4217924;28;21702;-68
2022/04/19 11:37:46;;;;;;;5.73;3.73;;;;;;;7.35;55.82;99954.66;4181895;28;25483;-68
2022/04/19 11:48:45;;;;;;;6.53;3.87;;;;;;;7.06;55.80;99960.69;4229596;28;21408;-73
2022/04/19 11:51:13;;;;;;;5.70;3.50;;;;;;;7.13;54.98;99951.25;4221101;28;20234;-68
2022/04/19 11:53:40;;;;;;;7.73;3.33;;;;;;;7.13;55.12;99959.19;4210210;28;21845;-67
2022/04/19 11:56:07;;;;;;;10.60;3.67;;;;;;;6.97;54.31;99961.50;4210528;28;20240;-66
2022/04/19 11:58:36;;;;;;;5.03;3.13;;;;;;;6.90;56.64;99955.06;4219054;28;20361;-66
2022/04/19 12:01:05;;;;;;;4.47;3.23;;;;;;;7.11;56.41;99955.84;4198284;28;22220;-67
2022/04/19 12:03:34;;;;;;;5.87;3.50;;;;;;;7.53;55.73;99958.31;4197855;28;20236;-66
2022/04/19 12:06:08;;;;;;;6.70;3.57;;;;;;;7.70;55.24;99958.59;4211778;28;22276;-66
2022/04/19 12:08:46;;;;;;;8.37;3.20;;;;;;;7.91;54.29;99951.34;4216505;28;20453;-67
2022/04/19 12:11:17;;;;;;;5.20;3.57;;;;;;;7.73;53.43;99958.34;4190308;28;20982;-68
2022/04/19 12:13:52;;;;;;;7.00;3.50;;;;;;;7.98;54.18;99959.59;4206959;28;22390;-68
2022/04/19 12:16:30;;;;;;;4.70;3.43;;;;;;;7.83;51.82;99953.88;4184625;28;20236;-66
2022/04/19 12:18:59;;;;;;;6.23;3.77;;;;;;;7.84;53.33;99947.59;4183384;28;22748;-68
2022/04/19 12:21:40;;;;;;;7.37;3.57;;;;;;;7.68;51.34;99955.25;4197577;28;20239;-66
2022/04/19 12:24:09;;;;;;;4.67;3.00;;;;;;;7.34;53.47;99948.53;4185182;28;20403;-67
2022/04/19 12:26:36;;;;;;;5.60;3.33;;;;;;;7.48;53.24;99944.66;4188764;28;23778;-67
2022/04/19 12:29:11;;;;;;;10.03;3.50;;;;;;;7.66;52.47;99944.00;4216836;28;20867;-67
2022/04/19 12:31:40;;;;;;;4.97;3.53;;;;;;;7.84;52.17;99944.94;4215299;28;20233;-67
2022/04/19 12:34:08;;;;;;;4.97;3.50;;;;;;;8.18;52.35;99948.00;4205629;28;21517;-67
2022/04/19 12:36:49;;;;;;;6.43;3.20;;;;;;;8.49;50.92;99949.66;4188585;28;20840;-66